Time;durP1;ratioP1;P1;durP2;ratioP2;P2;SDS_P1;SDS_P2;PMS_P1;PMS_P2;Temp;Humidity;BMP_temperature;BMP_pressure;BME280_temperature;BME280_humidity;BME280_pressure;Samples;Min_cycle;Max_cycle;Signal;HPM_P1;HPM_P2
2023/10/05 00:00:36;;;;;;;15.10;7.20;;;;;;;12.21;67.11;101125.77;109709;1269;23705;-74
2023/10/05 00:03:48;;;;;;;;;;;;;;;;;;;;;
2023/10/05 00:06:27;;;;;;;15.50;7.70;;;;;;;12.15;67.27;101111.49;110616;1259;21960;-75
2023/10/05 00:09:11;;;;;;;14.90;7.50;;;;;;;12.14;67.38;101110.13;110643;1259;21979;-75
2023/10/05 00:12:07;;;;;;;10.50;7.70;;;;;;;12.12;67.52;101117.35;110630;1259;22032;-75
2023/10/05 00:14:41;;;;;;;13.30;7.90;;;;;;;12.12;67.62;101123.63;110572;1259;21966;-75
2023/10/05 00:17:36;;;;;;;11.20;7.60;;;;;;;12.13;67.64;101122.21;109650;1266;22857;-74
2023/10/05 00:20:34;;;;;;;11.40;7.50;;;;;;;12.11;67.88;101118.79;109636;1268;22020;-74
2023/10/05 00:23:22;;;;;;;11.30;7.00;;;;;;;12.10;67.85;101114.79;109800;1269;22071;-75
2023/10/05 00:25:56;;;;;;;11.60;7.80;;;;;;;12.12;67.81;101112.99;109182;1271;23828;-76
2023/10/05 00:28:47;;;;;;;15.20;8.40;;;;;;;12.13;67.86;101111.04;109053;1274;23403;-74
2023/10/05 00:31:31;;;;;;;15.20;8.10;;;;;;;12.17;67.99;101099.73;109032;1274;21975;-75
2023/10/05 00:34:28;;;;;;;15.80;8.00;;;;;;;12.20;67.77;101097.75;109165;1274;22048;-75
2023/10/05 00:37:19;;;;;;;;;;;;;;;12.12;67.53;101091.03;109517;1269;21951;-76
2023/10/05 00:40:03;;;;;;;10.80;8.10;;;;;;;12.03;67.78;101092.70;109746;1269;22450;-75
2023/10/05 00:42:40;;;;;;;9.70;7.00;;;;;;;12.04;67.87;101088.46;109392;1270;21976;-75
2023/10/05 00:45:31;;;;;;;11.10;8.20;;;;;;;12.05;67.71;101083.91;110106;1261;21962;-76
2023/10/05 00:48:28;;;;;;;13.90;7.80;;;;;;;12.03;67.77;101081.01;110000;1265;21981;-76
2023/10/05 00:51:27;;;;;;;12.30;8.00;;;;;;;11.99;67.81;101079.57;110083;1265;23026;-75
2023/10/05 00:54:45;;;;;;;12.60;6.80;;;;;;;11.97;68.01;101076.85;110012;1268;23744;-74
2023/10/05 00:57:51;;;;;;;12.10;7.20;;;;;;;11.98;68.05;101083.45;110058;1267;21994;-75
2023/10/05 01:00:43;;;;;;;11.10;7.70;;;;;;;11.99;68.03;101083.92;109426;1270;22014;-75
2023/10/05 01:03:48;;;;;;;12.70;6.90;;;;;;;12.00;67.97;101091.39;109445;1270;22087;-74
2023/10/05 01:06:48;;;;;;;12.60;8.10;;;;;;;11.96;67.99;101085.77;109459;1270;21976;-74
2023/10/05 01:14:52;;;;;;;16.90;7.80;;;;;;;12.00;68.09;101097.85;108462;1279;22699;-75
2023/10/05 01:17:40;;;;;;;13.50;7.10;;;;;;;12.02;68.06;101092.02;108531;1281;21993;-74
2023/10/05 01:20:59;;;;;;;10.10;6.70;;;;;;;12.02;67.98;101095.51;109264;1273;23708;-73
2023/10/05 01:23:48;;;;;;;9.10;6.90;;;;;;;12.05;68.05;101093.48;109244;1273;23054;-75
2023/10/05 01:26:34;;;;;;;10.40;6.90;;;;;;;12.07;67.96;101090.61;109069;1273;22032;-75
2023/10/05 01:29:35;;;;;;;10.40;6.30;;;;;;;12.07;67.80;101085.92;109370;1266;21991;-75
2023/10/05 01:32:25;;;;;;;;;;;;;;;;;;;;;
2023/10/05 01:35:15;;;;;;;10.90;6.90;;;;;;;12.06;67.64;101073.56;110130;1266;24355;-75
2023/10/05 01:38:00;;;;;;;10.10;7.00;;;;;;;12.06;67.66;101076.17;109808;1267;21988;-74
2023/10/05 01:40:39;;;;;;;15.50;7.50;;;;;;;12.06;67.46;101081.94;109790;1269;21984;-74
2023/10/05 01:43:12;;;;;;;14.40;7.20;;;;;;;12.07;67.53;101077.72;109074;1275;24465;-75
2023/10/05 01:45:45;;;;;;;12.90;7.50;;;;;;;12.08;67.58;101077.35;108941;1275;21989;-75
2023/10/05 01:48:18;;;;;;;13.80;7.80;;;;;;;12.09;67.43;101079.59;109285;1270;22080;-75
2023/10/05 01:51:20;;;;;;;13.50;7.60;;;;;;;12.07;67.28;101081.92;108960;1276;22004;-74
2023/10/05 01:54:20;;;;;;;11.40;6.40;;;;;;;12.03;67.28;101080.47;109041;1276;22039;-75
2023/10/05 01:57:16;;;;;;;9.60;7.20;;;;;;;12.01;67.33;101076.20;108991;1275;23608;-76
2023/10/05 02:00:00;;;;;;;11.50;7.70;;;;;;;11.97;67.25;101077.01;109216;1272;21995;-75
2023/10/05 02:03:01;;;;;;;11.00;7.00;;;;;;;11.94;67.28;101073.98;109389;1271;21984;-76
2023/10/05 02:06:01;;;;;;;10.60;7.10;;;;;;;11.89;67.34;101074.09;109346;1271;21978;-75
2023/10/05 02:08:51;;;;;;;10.70;7.00;;;;;;;11.84;67.37;101074.23;109482;1268;21984;-74
2023/10/05 02:11:48;;;;;;;9.50;6.90;;;;;;;11.82;67.44;101070.30;109876;1266;23730;-75
2023/10/05 02:14:24;;;;;;;10.70;6.50;;;;;;;11.81;67.60;101070.16;110050;1267;22014;-75
2023/10/05 02:17:04;;;;;;;10.80;6.70;;;;;;;11.80;67.63;101071.76;110063;1267;21978;-75
2023/10/05 02:19:58;;;;;;;11.50;7.60;;;;;;;11.77;67.66;101071.85;110108;1260;23110;-74
2023/10/05 02:22:47;;;;;;;13.60;7.30;;;;;;;11.75;67.68;101068.79;110069;1266;22778;-76
2023/10/05 02:25:46;;;;;;;14.50;7.80;;;;;;;11.72;67.76;101062.77;110213;1266;22454;-75
2023/10/05 02:28:40;;;;;;;11.30;6.60;;;;;;;11.68;67.76;101065.31;110211;1265;22043;-74
2023/10/05 02:31:12;;;;;;;11.70;6.80;;;;;;;11.66;67.65;101061.05;110082;1265;22919;-74
2023/10/05 02:34:04;;;;;;;;;;;;;;;;;;;;;
2023/10/05 02:37:03;;;;;;;14.30;7.60;;;;;;;11.63;67.90;101066.35;109392;1271;21982;-74
2023/10/05 02:39:43;;;;;;;11.90;7.60;;;;;;;11.62;67.72;101064.64;109343;1271;22025;-74
2023/10/05 02:42:35;;;;;;;11.10;7.40;;;;;;;11.60;67.84;101063.13;109568;1271;22433;-74
2023/10/05 02:45:25;;;;;;;10.60;7.10;;;;;;;11.57;67.90;101059.22;109286;1271;21976;-75
2023/10/05 02:48:00;;;;;;;12.50;7.10;;;;;;;11.52;67.85;101054.85;109801;1268;24453;-74
2023/10/05 02:50:51;;;;;;;12.70;7.00;;;;;;;11.51;68.00;101049.28;109862;1268;23627;-74
2023/10/05 02:53:40;;;;;;;14.40;7.60;;;;;;;11.51;68.02;101049.63;110490;1260;23026;-73
2023/10/05 02:56:33;;;;;;;13.80;7.80;;;;;;;11.51;68.01;101048.77;110602;1260;22247;-74
2023/10/05 02:59:29;;;;;;;11.00;7.10;;;;;;;11.48;68.01;101048.17;110002;1267;22235;-74
2023/10/05 03:02:17;;;;;;;10.80;6.70;;;;;;;11.46;68.05;101049.80;109697;1267;23116;-74
2023/10/05 03:05:10;;;;;;;11.10;7.30;;;;;;;11.43;68.01;101045.88;109973;1267;23161;-73
2023/10/05 03:07:58;;;;;;;;;;;;;;;;;;;;;
2023/10/05 03:10:34;;;;;;;11.70;7.20;;;;;;;11.35;68.05;101036.16;109903;1266;22001;-75
2023/10/05 03:13:10;;;;;;;9.80;7.60;;;;;;;11.31;68.07;101034.91;109981;1267;21974;-74
2023/10/05 03:16:05;;;;;;;12.60;6.30;;;;;;;11.28;68.19;101030.80;109917;1267;21973;-72
2023/10/05 03:18:42;;;;;;;13.00;6.70;;;;;;;11.24;68.18;101028.83;110482;1260;21929;-75
2023/10/05 03:21:30;;;;;;;9.00;6.40;;;;;;;11.23;68.40;101021.89;110632;1260;23604;-74
2023/10/05 03:24:40;;;;;;;12.00;6.60;;;;;;;11.23;68.48;101017.04;110600;1261;21974;-73
2023/10/05 03:27:26;;;;;;;10.10;7.20;;;;;;;11.20;68.53;101010.66;110493;1260;22176;-75
2023/10/05 03:30:23;;;;;;;13.70;6.80;;;;;;;11.20;68.53;101005.45;110569;1261;21982;-76
2023/10/05 03:33:04;;;;;;;10.60;6.40;;;;;;;11.19;68.48;100999.20;110489;1261;23602;-75
2023/10/05 03:35:45;;;;;;;11.30;7.00;;;;;;;11.18;68.53;100994.19;110548;1261;21967;-74
2023/10/05 03:38:36;;;;;;;11.50;7.20;;;;;;;11.15;68.57;100988.86;110589;1261;21914;-74
2023/10/05 03:41:35;;;;;;;15.20;6.50;;;;;;;11.15;68.57;100984.52;110253;1261;21951;-74
2023/10/05 03:44:37;;;;;;;11.00;6.80;;;;;;;11.11;68.39;100980.09;110536;1261;21984;-75
2023/10/05 03:47:38;;;;;;;10.60;6.80;;;;;;;11.08;68.57;100969.21;110475;1261;21976;-75
2023/10/05 03:50:29;;;;;;;12.80;7.50;;;;;;;11.08;68.71;100962.08;110390;1254;23035;-74
2023/10/05 03:53:13;;;;;;;9.90;6.60;;;;;;;11.08;68.68;100961.55;110551;1261;22003;-74
2023/10/05 03:55:52;;;;;;;12.40;6.50;;;;;;;11.07;68.67;100957.02;110566;1261;23009;-75
2023/10/05 03:58:39;;;;;;;9.40;6.50;;;;;;;11.08;68.63;100955.11;110555;1261;22394;-74
2023/10/05 04:04:37;;;;;;;11.90;6.50;;;;;;;11.02;68.75;100956.86;109919;1268;23061;-76
2023/10/05 04:07:12;;;;;;;11.60;6.20;;;;;;;11.00;68.71;100955.00;109779;1268;21967;-76
2023/10/05 04:09:48;;;;;;;11.20;6.30;;;;;;;11.00;68.75;100956.59;109714;1268;22002;-76
2023/10/05 04:12:33;;;;;;;11.80;7.10;;;;;;;10.97;68.72;100952.13;109579;1268;21971;-77
2023/10/05 04:15:11;;;;;;;10.60;5.90;;;;;;;10.94;68.82;100953.27;109725;1268;21973;-76
2023/10/05 04:17:55;;;;;;;12.00;7.20;;;;;;;10.94;68.77;100955.20;109814;1268;23110;-75
2023/10/05 04:21:04;;;;;;;10.00;6.20;;;;;;;10.91;68.90;100956.32;109938;1257;21974;-75
2023/10/05 04:24:00;;;;;;;8.90;6.50;;;;;;;10.88;68.94;100958.34;109750;1268;24384;-77
2023/10/05 04:26:47;;;;;;;10.80;5.50;;;;;;;10.85;68.87;100963.11;109756;1268;23098;-76
2023/10/05 04:29:46;;;;;;;13.20;7.10;;;;;;;10.84;68.77;100959.14;109648;1268;23719;-77
2023/10/05 04:32:34;;;;;;;15.10;6.50;;;;;;;10.82;68.93;100954.14;109428;1270;22939;-77
2023/10/05 04:35:44;;;;;;;13.80;6.40;;;;;;;10.82;68.90;100952.23;109686;1266;21983;-75
2023/10/05 04:38:37;;;;;;;11.10;6.60;;;;;;;10.77;69.10;100950.11;110295;1264;23029;-75
2023/10/05 04:41:19;;;;;;;10.70;6.80;;;;;;;10.76;69.13;100948.03;109757;1266;23696;-75
2023/10/05 04:44:06;;;;;;;10.80;6.20;;;;;;;10.77;69.13;100940.70;109906;1266;24307;-74
2023/10/05 04:46:49;;;;;;;13.00;7.20;;;;;;;10.80;69.21;100939.76;110246;1265;21975;-75
2023/10/05 04:49:27;;;;;;;11.50;6.30;;;;;;;10.82;69.06;100936.02;109502;1270;22017;-75
2023/10/05 04:52:19;;;;;;;13.20;6.00;;;;;;;10.84;69.14;100928.83;108970;1274;21987;-75
2023/10/05 04:55:11;;;;;;;9.60;6.60;;;;;;;10.84;69.18;100923.09;109150;1274;23089;-76
2023/10/05 05:02:38;;;;;;;19.10;6.90;;;;;;;10.91;69.04;100929.14;108578;1281;23659;-74
2023/10/05 05:08:20;;;;;;;12.60;7.10;;;;;;;10.97;68.81;100925.15;108544;1280;22055;-75
2023/10/05 05:11:08;;;;;;;15.90;6.60;;;;;;;11.00;68.62;100925.56;108766;1276;21998;-73
2023/10/05 05:14:08;;;;;;;13.30;7.30;;;;;;;11.02;68.60;100927.58;108863;1276;23896;-74
2023/10/05 05:17:05;;;;;;;14.70;8.30;;;;;;;11.05;68.77;100928.56;108717;1280;22041;-75
2023/10/05 05:20:11;;;;;;;13.70;6.80;;;;;;;11.08;68.65;100929.51;108268;1286;23063;-74
2023/10/05 05:23:13;;;;;;;18.20;7.80;;;;;;;11.13;68.51;100933.52;108209;1286;22236;-75
2023/10/05 05:26:39;;;;;;;12.20;6.90;;;;;;;11.18;68.45;100932.51;108346;1284;22845;-74
2023/10/05 05:29:22;;;;;;;;;;;;;;;;;;;;;
2023/10/05 05:32:21;;;;;;;15.40;6.40;;;;;;;11.28;68.30;100939.87;108624;1280;21989;-79
2023/10/05 05:35:10;;;;;;;14.00;7.00;;;;;;;11.33;68.26;100939.02;108194;1274;23090;-80
2023/10/05 05:38:15;;;;;;;13.80;5.90;;;;;;;11.38;68.10;100940.08;106336;1273;2948683;-76
2023/10/05 05:41:18;;;;;;;;;;;;;;;;;;;;;
2023/10/05 05:43:56;;;;;;;10.60;6.30;;;;;;;11.48;67.58;100936.11;110032;1268;23038;-75
2023/10/05 05:46:32;;;;;;;11.00;6.50;;;;;;;11.50;67.54;100938.83;109007;1274;21990;-75
2023/10/05 05:49:08;;;;;;;14.00;6.10;;;;;;;11.53;67.27;100936.83;108724;1278;22020;-75
2023/10/05 05:51:53;;;;;;;13.20;6.00;;;;;;;11.53;67.04;100933.33;108419;1283;22052;-75
2023/10/05 05:54:31;;;;;;;15.40;5.90;;;;;;;11.52;67.01;100926.03;108699;1277;21995;-76
2023/10/05 05:57:12;;;;;;;10.30;6.50;;;;;;;11.53;67.27;100923.57;108596;1280;23912;-76
2023/10/05 05:59:54;;;;;;;8.80;5.70;;;;;;;11.55;67.07;100917.39;108599;1280;23530;-76
2023/10/05 06:02:34;;;;;;;9.70;6.40;;;;;;;11.56;67.01;100902.55;108550;1280;22129;-76
2023/10/05 06:05:22;;;;;;;;;;;;;;;11.64;67.22;100905.23;108571;1280;21965;-76
2023/10/05 06:08:29;;;;;;;11.20;5.80;;;;;;;11.63;67.32;100905.27;108847;1275;23712;-78
2023/10/05 06:11:42;;;;;;;10.90;6.40;;;;;;;11.71;67.26;100920.70;109779;1266;24347;-75
2023/10/05 06:14:17;;;;;;;11.50;6.30;;;;;;;11.81;67.13;100924.05;110008;1267;21991;-77
2023/10/05 06:17:04;;;;;;;21.00;7.00;;;;;;;11.90;66.91;100925.14;110037;1266;23631;-76
2023/10/05 06:19:46;;;;;;;14.30;8.90;;;;;;;12.00;66.69;100927.77;109704;1266;22232;-79
2023/10/05 06:22:44;;;;;;;17.60;7.90;;;;;;;12.07;66.48;100929.95;110023;1266;22699;-75
2023/10/05 06:25:38;;;;;;;14.00;7.20;;;;;;;12.17;66.51;100927.36;109953;1267;23736;-76
2023/10/05 06:28:45;;;;;;;13.00;6.70;;;;;;;12.30;66.45;100924.10;109032;1273;22190;-75
2023/10/05 06:31:22;;;;;;;13.80;6.80;;;;;;;12.40;66.03;100917.83;109008;1273;22544;-75
2023/10/05 06:34:09;;;;;;;9.80;6.40;;;;;;;12.49;65.68;100919.59;109042;1273;23705;-78
2023/10/05 06:36:57;;;;;;;13.00;6.80;;;;;;;12.56;65.45;100910.23;109322;1272;23072;-74
2023/10/05 06:39:59;;;;;;;14.50;7.30;;;;;;;12.59;65.13;100898.98;109307;1272;23756;-78
2023/10/05 06:42:37;;;;;;;12.20;5.80;;;;;;;12.70;65.01;100897.67;109818;1267;23109;-74
2023/10/05 06:45:13;;;;;;;10.00;5.80;;;;;;;12.90;65.05;100910.19;109839;1268;23735;-75
2023/10/05 06:47:49;;;;;;;10.50;6.70;;;;;;;13.08;64.94;100905.48;110509;1260;23430;-77
2023/10/05 06:50:52;;;;;;;12.50;5.80;;;;;;;13.17;64.28;100887.48;110571;1260;21994;-75
2023/10/05 06:53:25;;;;;;;12.60;6.60;;;;;;;13.40;64.32;100897.92;110452;1260;21967;-75
2023/10/05 06:56:06;;;;;;;13.50;6.70;;;;;;;13.63;64.26;100897.50;110522;1260;21961;-75
2023/10/05 06:58:44;;;;;;;21.60;7.20;;;;;;;13.85;63.55;100894.66;110447;1254;22905;-75
2023/10/05 07:01:40;;;;;;;12.20;6.50;;;;;;;14.01;62.90;100895.35;110527;1260;23025;-75
2023/10/05 07:04:15;;;;;;;11.10;5.90;;;;;;;14.24;62.75;100899.46;110393;1257;23575;-75
2023/10/05 07:06:52;;;;;;;10.00;5.90;;;;;;;14.41;62.05;100886.63;110509;1257;22337;-75
2023/10/05 07:09:26;;;;;;;11.10;5.90;;;;;;;14.59;61.29;100899.27;110398;1260;21963;-76
2023/10/05 07:12:17;;;;;;;10.80;6.50;;;;;;;14.60;60.58;100889.78;110590;1260;21978;-75
2023/10/05 07:14:59;;;;;;;10.10;5.80;;;;;;;14.64;60.22;100893.11;110546;1254;23584;-75
2023/10/05 07:17:51;;;;;;;14.10;6.20;;;;;;;14.62;59.79;100892.53;110541;1260;21993;-75
2023/10/05 07:20:29;;;;;;;11.50;5.90;;;;;;;14.70;60.37;100891.08;109926;1264;23065;-76
2023/10/05 07:23:08;;;;;;;10.90;6.10;;;;;;;14.98;60.95;100889.78;109928;1267;21989;-75
2023/10/05 07:25:49;;;;;;;10.80;5.20;;;;;;;15.30;59.89;100884.19;109746;1268;23043;-76
2023/10/05 07:28:32;;;;;;;10.70;5.60;;;;;;;15.54;59.23;100886.71;110051;1267;21983;-75
2023/10/05 07:31:22;;;;;;;;;;;;;;;;;;;;;
2023/10/05 07:34:04;;;;;;;11.50;5.70;;;;;;;15.83;57.91;100891.06;109989;1266;22207;-75
2023/10/05 07:36:53;;;;;;;;;;;;;;;;;;;;;
2023/10/05 07:39:32;;;;;;;10.90;5.60;;;;;;;15.86;56.69;100890.06;109879;1265;21990;-74
2023/10/05 07:42:27;;;;;;;10.70;5.80;;;;;;;15.87;56.82;100894.19;110085;1265;21977;-77
2023/10/05 07:45:15;;;;;;;9.30;5.80;;;;;;;15.94;56.72;100894.55;109680;1270;22474;-75
2023/10/05 07:48:08;;;;;;;11.00;6.40;;;;;;;16.04;56.73;100892.96;109083;1274;21983;-76
2023/10/05 07:51:17;;;;;;;10.20;5.10;;;;;;;16.07;56.02;100893.38;108945;1274;23071;-76
2023/10/05 07:54:09;;;;;;;11.30;5.50;;;;;;;16.10;56.08;100893.58;108921;1274;21981;-76
2023/10/05 07:57:12;;;;;;;;;;;;;;;;;;;;;
2023/10/05 08:00:01;;;;;;;11.80;6.10;;;;;;;16.46;55.94;100892.02;109130;1274;22116;-76
2023/10/05 08:03:14;;;;;;;12.60;7.00;;;;;;;16.63;55.54;100893.05;108843;1276;22009;-76
2023/10/05 08:06:12;;;;;;;;;;;;;;;;;;;;;
2023/10/05 08:08:58;;;;;;;11.20;6.80;;;;;;;16.74;54.40;100895.75;108886;1273;21967;-76
2023/10/05 08:11:46;;;;;;;10.30;6.40;;;;;;;16.95;54.43;100894.11;108780;1277;23061;-76
2023/10/05 08:14:32;;;;;;;16.20;7.20;;;;;;;17.21;54.41;100897.73;108831;1277;21990;-77
2023/10/05 08:17:27;;;;;;;14.30;6.30;;;;;;;17.49;54.39;100896.30;108602;1277;21981;-77
2023/10/05 08:20:11;;;;;;;9.90;6.20;;;;;;;17.81;53.86;100899.95;108845;1275;22926;-76
2023/10/05 08:23:10;;;;;;;10.20;6.70;;;;;;;17.87;52.30;100898.31;109053;1270;21983;-76
2023/10/05 08:25:49;;;;;;;13.20;6.50;;;;;;;17.78;51.98;100902.68;109359;1270;21991;-77
2023/10/05 08:28:53;;;;;;;21.80;18.50;;;;;;;17.79;52.38;100898.27;109193;1270;22730;-77
2023/10/05 08:31:40;;;;;;;23.40;19.00;;;;;;;17.87;52.49;100898.33;109524;1268;21979;-77
2023/10/05 08:34:32;;;;;;;13.10;7.50;;;;;;;17.92;52.11;100891.90;109486;1270;22085;-75
2023/10/05 08:37:16;;;;;;;10.30;6.40;;;;;;;17.91;51.78;100888.95;109656;1270;22063;-76
2023/10/05 08:43:54;;;;;;;14.50;7.30;;;;;;;17.48;51.45;100886.67;110137;1265;23034;-77
2023/10/05 08:47:10;;;;;;;10.90;6.40;;;;;;;17.35;51.94;100894.47;110102;1265;22444;-76
2023/10/05 08:49:51;;;;;;;12.10;6.60;;;;;;;17.26;52.32;100890.23;110180;1261;22582;-77
2023/10/05 08:52:34;;;;;;;10.30;7.00;;;;;;;17.27;52.67;100889.98;110546;1260;22599;-76
2023/10/05 08:55:14;;;;;;;12.00;6.50;;;;;;;17.31;52.63;100889.63;110254;1260;22308;-76
2023/10/05 08:58:10;;;;;;;8.80;6.00;;;;;;;17.32;52.52;100890.76;110337;1260;21952;-76
2023/10/05 09:00:49;;;;;;;10.70;6.50;;;;;;;17.27;52.36;100884.90;109671;1268;22043;-75
2023/10/05 09:03:31;;;;;;;12.10;6.40;;;;;;;17.20;52.31;100879.88;109596;1268;21976;-76
2023/10/05 09:06:20;;;;;;;12.10;6.20;;;;;;;17.13;52.60;100879.69;109854;1268;23028;-76
2023/10/05 09:11:59;;;;;;;12.70;6.60;;;;;;;17.25;53.01;100889.08;109184;1274;22655;-75
2023/10/05 09:14:38;;;;;;;11.40;7.70;;;;;;;17.27;52.73;100884.92;109009;1274;21985;-77
2023/10/05 09:17:22;;;;;;;15.50;7.40;;;;;;;17.27;52.66;100883.33;108703;1278;21994;-76
2023/10/05 09:20:35;;;;;;;12.90;7.30;;;;;;;17.17;52.26;100882.13;108780;1278;22380;-77
2023/10/05 09:23:58;;;;;;;25.20;7.20;;;;;;;17.10;52.47;100881.48;108656;1266;23065;-75
2023/10/05 09:26:54;;;;;;;11.80;6.50;;;;;;;17.01;52.58;100880.59;108243;1285;23081;-75
2023/10/05 09:29:43;;;;;;;13.00;7.00;;;;;;;16.98;52.79;100892.86;108090;1288;22149;-75
2023/10/05 09:32:36;;;;;;;11.90;7.50;;;;;;;17.02;53.03;100890.04;107852;1289;23501;-74
2023/10/05 09:35:46;;;;;;;12.10;7.30;;;;;;;17.08;53.02;100891.98;108501;1283;23635;-75
2023/10/05 09:38:49;;;;;;;15.90;7.00;;;;;;;17.12;53.08;100896.30;108623;1278;22017;-75
2023/10/05 09:41:37;;;;;;;15.50;6.90;;;;;;;17.22;53.35;100896.10;108840;1277;22485;-75
2023/10/05 09:44:50;;;;;;;15.20;7.20;;;;;;;17.38;53.28;100895.34;109003;1272;21961;-75
2023/10/05 09:47:49;;;;;;;14.40;6.90;;;;;;;17.52;52.85;100898.09;109524;1269;23174;-75
2023/10/05 09:50:38;;;;;;;11.10;7.80;;;;;;;17.61;52.32;100896.70;109322;1272;21975;-74
2023/10/05 09:53:34;;;;;;;;;;;;;;;;;;;;;
2023/10/05 09:56:33;;;;;;;10.20;6.50;;;;;;;17.46;51.76;100905.45;109322;1272;23624;-75
2023/10/05 09:59:28;;;;;;;14.70;7.30;;;;;;;17.42;51.95;100896.17;109552;1272;22650;-75
2023/10/05 10:02:34;;;;;;;;;;;;;;;;;;;;;
2023/10/05 10:05:33;;;;;;;11.30;6.70;;;;;;;17.46;51.86;100896.65;110431;1263;23781;-75
2023/10/05 10:08:53;;;;;;;13.80;7.80;;;;;;;17.44;52.03;100891.14;110739;1260;23002;-74
2023/10/05 10:12:38;;;;;;;11.90;5.70;;;;;;;17.46;52.08;100886.08;110734;1260;22484;-77
2023/10/05 10:15:49;;;;;;;12.20;6.80;;;;;;;17.57;52.18;100881.61;110807;1259;21975;-75
2023/10/05 10:19:23;;;;;;;11.20;5.90;;;;;;;17.64;51.59;100873.11;110763;1260;21966;-75
2023/10/05 10:22:21;;;;;;;;;;;;;;;;;;;;;
2023/10/05 10:26:15;;;;;;;;;;;;;;;;;;;;;
2023/10/05 10:29:52;;;;;;;;;;;;;;;;;;;;;
2023/10/05 10:32:43;;;;;;;10.50;5.50;;;;;;;17.27;51.27;100870.49;109900;1268;22495;-75
2023/10/05 10:36:06;;;;;;;12.70;5.40;;;;;;;17.18;51.37;100868.39;109526;1271;22414;-76
2023/10/05 10:42:27;;;;;;;8.40;5.10;;;;;;;17.22;51.77;100856.52;108910;1276;22256;-75
2023/10/05 10:45:36;;;;;;;9.20;5.30;;;;;;;17.33;51.75;100845.70;108788;1270;23767;-76
2023/10/05 10:48:57;;;;;;;10.40;4.90;;;;;;;17.45;51.71;100844.49;108948;1276;22480;-76
2023/10/05 10:51:55;;;;;;;8.30;4.40;;;;;;;17.59;51.20;100837.35;108568;1278;22058;-75
2023/10/05 10:54:48;;;;;;;8.80;5.30;;;;;;;17.69;50.74;100829.17;108189;1287;22855;-75
2023/10/05 10:57:53;;;;;;;8.30;4.50;;;;;;;17.73;50.21;100824.81;108054;1287;22061;-76
2023/10/05 11:03:24;;;;;;;8.80;2.40;;;;;;;17.88;49.85;100820.47;107725;1292;22207;-76
2023/10/05 11:05:52;;;;;;;12.40;4.60;;;;;;;17.96;49.94;100818.39;107965;1287;22433;-77
2023/10/05 11:08:30;;;;;;;9.30;4.60;;;;;;;18.05;49.79;100821.89;108128;1287;23092;-75
2023/10/05 11:11:09;;;;;;;8.70;4.50;;;;;;;18.10;49.49;100816.34;108581;1276;21982;-77
2023/10/05 11:13:44;;;;;;;9.50;4.20;;;;;;;18.07;49.17;100812.97;109187;1272;21993;-78
2023/10/05 11:16:15;;;;;;;7.10;4.70;;;;;;;18.07;49.32;100816.31;109235;1272;22998;-77
2023/10/05 11:18:57;;;;;;;9.90;4.20;;;;;;;18.07;49.09;100816.52;108559;1278;22102;-78
2023/10/05 11:21:34;;;;;;;6.80;4.70;;;;;;;18.01;48.97;100815.98;108742;1278;21984;-77
2023/10/05 11:24:06;;;;;;;9.90;4.80;;;;;;;17.95;49.12;100814.73;108808;1278;23100;-78
2023/10/05 11:27:05;;;;;;;10.50;5.80;;;;;;;17.89;49.12;100815.14;108620;1276;23045;-77
2023/10/05 11:29:48;;;;;;;10.70;5.10;;;;;;;17.79;49.33;100815.86;108553;1282;23653;-77
2023/10/05 11:32:42;;;;;;;10.40;4.30;;;;;;;17.78;49.53;100816.98;108427;1282;22084;-76
2023/10/05 11:36:21;;;;;;;9.90;5.20;;;;;;;17.78;49.84;100818.23;109058;1272;23214;-77
2023/10/05 11:39:39;;;;;;;;;;;;;;;17.82;49.88;100816.94;109293;1272;21969;-76
2023/10/05 11:43:07;;;;;;;;;;;;;;;;;;;;;
2023/10/05 11:46:24;;;;;;;8.80;5.00;;;;;;;17.76;50.12;100810.61;108979;1273;23735;-76
2023/10/05 11:49:49;;;;;;;;;;;;;;;;;;;;;
2023/10/05 11:53:13;;;;;;;12.00;5.00;;;;;;;17.88;50.37;100805.11;109194;1273;23743;-79
2023/10/05 11:56:03;;;;;;;;;;;;;;;;;;;;;
2023/10/05 11:59:06;;;;;;;8.00;4.50;;;;;;;18.03;49.95;100794.58;109167;1273;23031;-75
2023/10/05 12:05:17;;;;;;;11.10;4.30;;;;;;;18.18;49.70;100794.17;108816;1278;23666;-76
2023/10/05 12:07:59;;;;;;;12.40;5.70;;;;;;;18.24;49.50;100796.27;108911;1278;22003;-75
2023/10/05 12:10:59;;;;;;;13.10;6.70;;;;;;;18.27;49.31;100799.75;108765;1277;21984;-76
2023/10/05 12:14:29;;;;;;;11.80;5.70;;;;;;;18.26;49.23;100801.73;108837;1277;22597;-76
2023/10/05 12:17:05;;;;;;;9.70;4.80;;;;;;;18.27;49.13;100806.95;108793;1276;22102;-76
2023/10/05 12:19:51;;;;;;;10.90;6.20;;;;;;;18.30;49.15;100807.82;108967;1276;23202;-76
2023/10/05 12:22:33;;;;;;;26.60;6.40;;;;;;;18.29;48.98;100808.02;109054;1265;22021;-78
2023/10/05 12:25:16;;;;;;;12.60;6.30;;;;;;;18.26;49.10;100809.31;109972;1262;22071;-75
2023/10/05 12:28:32;;;;;;;9.00;5.60;;;;;;;18.18;49.20;100815.10;110003;1266;23599;-77
2023/10/05 12:31:40;;;;;;;11.10;4.90;;;;;;;18.10;49.28;100801.15;109405;1271;22049;-77
2023/10/05 12:34:14;;;;;;;11.00;5.10;;;;;;;18.09;49.33;100805.09;109226;1271;21981;-77
2023/10/05 12:37:29;;;;;;;14.70;5.70;;;;;;;18.07;49.47;100803.29;109464;1267;21993;-77
2023/10/05 12:40:26;;;;;;;8.40;4.60;;;;;;;18.08;49.63;100804.08;109391;1272;22049;-76
2023/10/05 12:43:03;;;;;;;8.70;5.30;;;;;;;18.09;49.61;100806.17;109126;1272;22456;-76
2023/10/05 12:46:09;;;;;;;10.10;5.90;;;;;;;18.09;49.63;100802.48;109171;1272;22414;-76
2023/10/05 12:49:07;;;;;;;13.40;6.10;;;;;;;18.08;49.59;100804.45;109279;1266;22042;-78
2023/10/05 12:51:53;;;;;;;9.60;5.40;;;;;;;18.08;49.56;100798.78;110034;1260;21977;-76
2023/10/05 12:54:44;;;;;;;;;;;;;;;;;;;;;
2023/10/05 12:57:42;;;;;;;10.40;5.50;;;;;;;18.02;49.47;100808.88;109611;1270;22757;-80
2023/10/05 13:00:44;;;;;;;;;;;;;;;;;;;;;
2023/10/05 13:03:48;;;;;;;8.60;4.90;;;;;;;17.85;49.62;100805.00;108917;1276;21990;-81
2023/10/05 13:06:33;;;;;;;12.50;5.70;;;;;;;17.74;49.46;100806.30;108863;1271;22045;-77
2023/10/05 13:09:37;;;;;;;10.80;5.70;;;;;;;17.64;49.78;100807.81;109028;1276;22046;-77
2023/10/05 13:12:18;;;;;;;16.30;6.00;;;;;;;17.57;49.78;100814.35;109022;1272;23042;-75
2023/10/05 13:15:06;;;;;;;9.50;4.60;;;;;;;17.46;49.88;100817.70;109189;1272;21973;-76
2023/10/05 13:17:56;;;;;;;;;;;;;;;;;;;;;
2023/10/05 13:20:51;;;;;;;8.00;4.40;;;;;;;17.27;50.15;100815.25;109965;1265;21955;-76
2023/10/05 13:23:52;;;;;;;10.40;5.20;;;;;;;17.20;50.39;100819.52;110174;1265;21973;-76
2023/10/05 13:26:45;;;;;;;10.30;4.60;;;;;;;17.17;50.59;100814.93;110050;1254;24205;-77
2023/10/05 13:29:25;;;;;;;11.00;5.30;;;;;;;17.18;50.83;100816.29;109728;1266;22727;-76
2023/10/05 13:32:27;;;;;;;13.20;5.30;;;;;;;17.19;51.08;100817.31;109365;1271;23058;-77
2023/10/05 13:35:10;;;;;;;;;;;;;;;;;;;;;
2023/10/05 13:37:52;;;;;;;9.60;5.00;;;;;;;17.17;51.31;100810.19;109605;1270;21985;-78
2023/10/05 13:43:44;;;;;;;13.10;5.30;;;;;;;17.23;51.70;100811.98;109462;1270;22517;-76
2023/10/05 13:46:44;;;;;;;7.40;5.30;;;;;;;17.28;51.79;100811.11;109036;1275;22077;-78
2023/10/05 13:49:26;;;;;;;10.50;6.20;;;;;;;17.27;51.77;100797.34;109096;1270;21987;-78
2023/10/05 13:52:05;;;;;;;9.10;5.00;;;;;;;17.34;51.76;100807.83;109426;1270;22025;-77
2023/10/05 13:55:16;;;;;;;13.00;6.10;;;;;;;17.33;51.71;100805.58;109513;1270;23817;-75
2023/10/05 13:58:20;;;;;;;14.00;6.10;;;;;;;17.32;51.78;100802.33;109418;1270;21989;-78
2023/10/05 14:01:07;;;;;;;10.40;5.90;;;;;;;17.33;51.83;100797.86;109518;1270;22010;-76
2023/10/05 14:03:38;;;;;;;10.20;5.90;;;;;;;17.28;51.89;100791.65;109506;1266;21973;-79
2023/10/05 14:06:29;;;;;;;8.30;4.80;;;;;;;17.25;51.93;100792.50;110557;1266;23790;-76
2023/10/05 14:09:09;;;;;;;11.60;5.70;;;;;;;17.26;52.02;100797.77;110741;1266;22056;-77
2023/10/05 14:12:20;;;;;;;9.70;5.80;;;;;;;17.17;52.22;100798.23;110061;1262;23081;-77